Tiempo atmosférico en la estación meteorológica de Tortosa, Tarragona (44 m.)



Fecha
DESCASC
Temp. máxima en grados centígrados (hora)
DESCASC
Temp. mínima en grados centígrados (hora)
DESCASC
Temp. media en grados centígrados
DESCASC
Racha de viento máxima en m/sg (hora)
DESCASC
Velocidad máxima media en intervalos de 10 minutos(hora)
DESCASC
Precipitaciones diarias en mm
DESCASC
Precipitaciones de 00:00 a 06:00 en mm
DESCASC
Precipitaciones de 06:00 a 12:00 en mm
DESCASC
Precipitaciones de 12:00 a 18:00 en mm
DESCASC
Precipitaciones de 18:00 a 24:00 en mm
DESCASC
27-01-2020 17.4 (14:00) 3.3 (08:40) 10.3 4.72 (23:00) 2.5 (16:30) 0 0 0 0 0
26-01-2020 16.2 (15:10) 6.6 (23:40) 11.4 8.06 (15:20) 4.17 (16:40) 0.2 0.2 0 0 0
25-01-2020 14.2 (15:10) 6.7 (00:00) 10.4 5.28 (16:00) 2.78 (16:10) 0 0 0 0 0
24-01-2020 16.1 (15:00) 4.1 (00:00) 10.1 4.44 (15:00) 2.22 (00:50) 0 0 0 0 0
23-01-2020 15.1 (14:40) 6.8 (00:00) 11 9.17 (01:10) 4.44 (04:10) 10 10 0 0 0
22-01-2020 11.6 (12:50) 6.7 (00:00) 9.2 11.11 (15:10) 5 (22:00) 7.4 0 0 4.8 2.6
21-01-2020 12.6 (14:20) 6.5 (00:00) 9.6 21.67 (13:40) 9.44 (13:40) 161.6 18.8 24.4 54.6 63.8
20-01-2020 7.2 (01:10) 3.3 (00:00) 5.2 12.5 (22:00) 5.83 (21:50) 47 0.2 9.8 20.6 16.4
19-01-2020 11.5 (03:10) 6.3 (00:00) 8.9 10 (05:10) 5 (03:00) 15 1.6 12.2 1.2 0
18-01-2020 16.4 (13:50) 8.1 (00:00) 12.3 8.33 (13:50) 4.17 (06:00) 0 0 0 0 0
17-01-2020 20.1 (13:30) 5 (00:00) 12.6 11.94 (13:40) 5.56 (13:40) 0 0 0 0 0
16-01-2020 18.7 (15:00) 3.4 (00:00) 11.1 5 (16:00) 3.33 (18:50) 0 0 0 0 0
15-01-2020 15.6 (16:10) -0.3 (00:00) 7.7 5 (22:50) 2.78 (22:50) 0 0 0 0 0
14-01-2020 15.5 (14:40) 0.1 (00:00) 7.8 8.89 (04:10) 5 (04:20) 0 0 0 0 0
13-01-2020 13.6 (14:50) -0.9 (-00:0) 6.4 7.5 (11:00) 3.61 (11:00) 0 0 0 0 0
12-01-2020 16.8 (15:10) 0.3 (06:50) 8.5 6.94 (11:10) 3.61 (11:10) 0 0 0 0 0
11-01-2020 16.2 (15:00) 3.1 (00:00) 9.7 8.33 (05:10) 3.89 (14:10) 0 0 0 0 0
10-01-2020 13.5 (16:20) 6.6 (00:00) 10 16.67 (08:00) 8.33 (08:00) 0 0 0 0 0
09-01-2020 15.3 (15:00) 2.6 (00:00) 9 5.28 (08:20) 2.5 (08:10) 0 0 0 0 0
08-01-2020 17.3 (15:40) 3.2 (00:00) 10.2 9.44 (07:50) 4.17 (07:50) 0 0 0 0 0
07-01-2020 13.5 (15:40) 3.3 (00:00) 8.4 9.44 (05:20) 5 (03:10) 0 0 0 0 0
06-01-2020 13.1 (14:50) 2.1 (00:00) 7.6 9.72 (21:30) 5 (21:30) 0 0 0 0 0
05-01-2020 17.4 (15:20) 5 (00:00) 11.2 9.72 (11:10) 4.72 (04:30) 0 0 0 0 0
04-01-2020 16 (15:00) 3 (00:00) 9.5 12.5 (13:20) 6.94 (14:20) 0 0 0 0 0
03-01-2020 10.6 (15:40) 2.2 (00:00) 6.4 12.5 (09:00) 5.56 (08:50) 0 0 0 0 0
02-01-2020 9.5 (14:20) 1.3 (00:00) 5.4 8.89 (03:40) 4.17 (11:00) 0 0 0 0 0
01-01-2020 8.3 (12:50) 2.5 (00:00) 5.4 11.94 (00:40) 5.56 (02:20) 0 0 0 0 0
31-12-2019 9.9 (13:10) 3.6 (00:00) 6.7 12.5 (23:59) 5 (19:10) 0 0 0 0 0
30-12-2019 11 (14:00) 3.9 (00:00) 7.5 10.28 (20:20) 4.72 (18:30) 0 0 0 0 0

Gráficas

Temp. máximas Temp. mínimas Temp. medias Precipitaciones Rachas de viento máximas Velocidades máximas media en intervalos de 10 minutos

Datos horarios

Fecha y hora oficial Temperatura (ºC) Velocidad del viento (km/h) Dirección del viento Racha (km/h) Dirección de racha Precipitación (mm) Presión (hPa) Tendencia (hPa) Humedad (%)
2020-01-28 23:00:00 13.2 4 Este 21 Noroeste 0 1014.9 0.7 72
2020-01-28 22:00:00 14.7 12 Noroeste 24 Noroeste 0 1014.5 0.6 69
2020-01-28 21:00:00 15.5 9 Noroeste 18 Noroeste 0 1014.4 1 64
2020-01-28 20:00:00 15 4 Oeste 10 Noroeste 0 1014.2 1 70
2020-01-28 19:00:00 15.6 5 Nordeste 9 Norte 0 1013.9 0.8 72
2020-01-28 18:00:00 17.3 5 Noroeste 9 Oeste 0 1013.4 0.5 58
2020-01-28 17:00:00 17.5 4 Noroeste 15 Oeste 0 1013.2 -0.4 58
2020-01-28 16:00:00 17 4 Norte 13 Nordeste 0 1013.1 -1 64
2020-01-28 15:00:00 18 3 Noroeste 15 Oeste 0 1012.9 -1.7 54
2020-01-28 14:00:00 17.7 6 Oeste 21 Oeste 0 1013.6 -0.8 53
2020-01-28 13:00:00 17.9 5 Noroeste 22 Noroeste 0 1014.1 0 56
2020-01-28 12:00:00 18 3 Sudeste 21 Sudoeste 0 1014.6 1.3 54
2020-01-28 11:00:00 17.8 5 Noroeste 21 Oeste 0 1014.4 1.7 53
2020-01-28 10:00:00 16.6 5 Noroeste 20 Norte 0 1014.1 1.3 56
2020-01-28 09:00:00 11.5 7 Norte 17 Noroeste 0 1013.3 0.4 77
2020-01-28 08:00:00 9.6 6 Noroeste 22 Noroeste 0 1012.7 -0.2 81
2020-01-28 07:00:00 8 6 Oeste 14 Oeste 0 1012.8 -0.3 88
2020-01-28 06:00:00 8.1 4 Sudoeste 20 Oeste 0 1012.9 -0.6 85
2020-01-28 05:00:00 8.1 6 Sudoeste 23 Oeste 0 1012.9 -0.8 84
2020-01-28 04:00:00 7.3 6 Sudeste 12 Norte 0 1013.1 -0.9 88
2020-01-28 03:00:00 6.9 3 Sudoeste 15 Sudoeste 0 1013.5 -0.9 91
2020-01-28 02:00:00 7 4 Norte 22 Sudoeste 0 1013.7 -1.1 91
2020-01-28 01:00:00 7.4 4 Oeste 17 Sudoeste 0 1014 -1 90
2020-01-28 00:00:00 7.4 3 Sur 10 Nordeste 0 1014.4 -0.5 91
2020-01-27 23:00:00 7.7 8 Sudoeste 17 Sur 0 1014.8 0.2 89
2020-01-27 22:00:00 8 9 Noroeste 14 Noroeste 0 1015 0.7 91
2020-01-27 21:00:00 8.9 7 Norte 11 Norte 0 1014.9 0.9 90
2020-01-27 20:00:00 10.4 2 Norte 9 Sur 0 1014.6 0.3 85
2020-01-27 19:00:00 11.2 9 Sudoeste 13 Sur 0 1014.3 0.2 83
2020-01-27 18:00:00 13.7 6 Sur 13 Norte 0 1014 -0.6 73
2020-01-27 17:00:00 15.6 6 Norte 17 Nordeste 0 1014.3 -1.2 53
2020-01-27 16:00:00 16.8 4 Nordeste 10 Nordeste 0 1014.1 -2.4 49
2020-01-27 15:00:00 16.9 2 Sudeste 6 Sur 0 1014.6 -3.2 47
2020-01-27 14:00:00 17.4 4 Sur 9 Sudeste 0 1015.5 -2.7 45
2020-01-27 13:00:00 15.4 2 Oeste 9 Noroeste 0 1016.5 -1.4 53
2020-01-27 12:00:00 12.9 2 Nordeste 9 Norte 0 1017.8 -0.2 67
2020-01-27 11:00:00 8.7 3 Norte 9 Nordeste 0 1018.2 0.4 84
2020-01-27 10:00:00 6.1 3 Norte 13 Noroeste 0 1017.9 0.3 95
2020-01-27 09:00:00 3.6 8 Norte 14 Norte 0 1018 0.2 97
2020-01-27 08:00:00 3.4 4 Norte 13 Noroeste 0 1017.8 -0.1 96
2020-01-27 07:00:00 3.7 6 Norte 13 Norte 0 1017.6 -0.8 97
2020-01-27 06:00:00 3.5 3 Oeste 9 Norte 0 1017.8 -0.9 96
2020-01-27 05:00:00 3.8 3 Este 11 Sur 0 1017.9 -0.7 95
2020-01-27 04:00:00 4.1 4 Sudoeste 11 Norte 0 1018.4 -0.6 93
2020-01-27 03:00:00 4.4 4 Norte 9 Noroeste 0 1018.7 -0.4 93
2020-01-27 02:00:00 4.6 4 Norte 9 Norte 0 1018.6 -0.1 93
2020-01-27 01:00:00 5.6 2 Sudoeste 10 Noroeste 0 1019 0.5 90
2020-01-27 00:00:00 6.6 4 Norte 8 Norte 0 1019.1 0.8 88
2020-01-26 23:00:00 7.5 3 Norte 9 Noroeste 0 1018.7 1 85
2020-01-26 22:00:00 8.6 4 Nordeste 7 Nordeste 0 1018.5 1.2 81
2020-01-26 21:00:00 9.7 3 Norte 10 Noroeste 0 1018.3 1.8 75
2020-01-26 20:00:00 11.9 8 Oeste 21 Noroeste 0 1017.7 1.9 63
2020-01-26 19:00:00 11.9 8 Noroeste 21 Norte 0 1017.3 1.7 61
2020-01-26 18:00:00 13.3 8 Noroeste 23 Noroeste 0 1016.5 1.1 59
2020-01-26 17:00:00 15.1 12 Noroeste 28 Noroeste 0 1015.8 0.2 56
2020-01-26 16:00:00 15.6 10 Noroeste 29 Norte 0 1015.6 -0.4 55
2020-01-26 15:00:00 16.1 10 Norte 26 Noroeste 0 1015.4 -0.9 53
2020-01-26 14:00:00 15.9 11 Norte 24 Norte 0 1015.6 -0.5 59
2020-01-26 13:00:00 14.6 12 Norte 24 Norte 0 1016 0.1 66
2020-01-26 12:00:00 14.4 10 Norte 23 Norte 0 1016.3 1 65
2020-01-26 11:00:00 12.6 6 Norte 20 Norte 0 1016.1 1.6 83
2020-01-26 10:00:00 9.3 10 Norte 17 Noroeste 0 1015.9 2.3 98
2020-01-26 09:00:00 8.7 4 Norte 8 Sudoeste 0 1015.3 1.9 100
2020-01-26 08:00:00 8.3 6 Sudoeste 10 Norte 0 1014.5 1.1 100
2020-01-26 07:00:00 8.8 8 Norte 15 Noroeste 0 1013.6 0 99
2020-01-26 06:00:00 8.8 6 Norte 12 Norte 0 1013.4 -0.1 99
2020-01-26 05:00:00 8.9 8 Noroeste 12 Norte 0 1013.4 -0.3 99
2020-01-26 04:00:00 8.9 4 Nordeste 7 Noroeste 0 1013.6 -0.3 99
2020-01-26 03:00:00 9.5 7 Noroeste 9 Noroeste 0.2 1013.5 -0.3 99
2020-01-26 02:00:00 9.4 3 Nordeste 4 Sudoeste 0 1013.7 -0.3 98
2020-01-26 01:00:00 9.5 0 Calma 5 Norte 0 1013.9 -0.1 97
2020-01-26 00:00:00 9.8 3 Norte 6 Nordeste 0 1013.8 -0.4 97
2020-01-25 23:00:00 10 5 Norte 14 Sudoeste 0 1014 0 95
2020-01-25 22:00:00 10.6 7 Sudoeste 10 Sudoeste 0 1014 0.3 95
2020-01-25 21:00:00 10.9 8 Sudoeste 11 Sudoeste 0 1014.2 1 94
2020-01-25 20:00:00 11.3 8 Sudoeste 13 Sudoeste 0 1014 0.8 92
2020-01-25 19:00:00 11.8 0 Calma 6 Este 0 1013.7 0.3 87
2020-01-25 18:00:00 12.3 3 Sudeste 12 Sudeste 0 1013.2 -0.6 86
2020-01-25 17:00:00 13.2 8 Sudeste 19 Sur 0 1013.2 -1.4 83
2020-01-25 16:00:00 13.9 10 Sudeste 19 Sudeste 0 1013.4 -2.1 81
2020-01-25 15:00:00 14.1 6 Sur 11 Sur 0 1013.8 -2.7 82
2020-01-25 14:00:00 13.6 5 Sur 9 Sur 0 1014.6 -1.9 85
2020-01-25 13:00:00 12.4 3 Sudoeste 5 Este 0 1015.5 -0.9 91
2020-01-25 12:00:00 10.5 2 Sudeste 4 Este 0 1016.5 0.6 98
2020-01-25 11:00:00 9.4 0 Calma 5 Noroeste 0 1016.5 0.9 100
2020-01-25 10:00:00 8.3 3 Norte 6 Noroeste 0 1016.4 1.3 100
2020-01-25 09:00:00 7.3 3 Norte 6 Norte 0 1015.9 0.5 99
2020-01-25 08:00:00 7.3 3 Noroeste 5 Norte 0 1015.6 0.2 100
2020-01-25 07:00:00 7 3 Norte 7 Norte 0 1015.1 -0.8 99
2020-01-25 06:00:00 7.3 4 Noroeste 6 Norte 0 1015.4 -0.8 100
2020-01-25 05:00:00 7 3 Norte 6 Norte 0 1015.4 -1 99
2020-01-25 04:00:00 6.8 0 Calma 3 Sudeste 0 1015.9 -0.9 99
2020-01-25 03:00:00 7 0 Calma 3 Noroeste 0 1016.2 -0.7 98
2020-01-25 02:00:00 7.2 0 Calma 4 Sudeste 0 1016.4 -0.7 97
2020-01-25 01:00:00 7.9 0 Calma 7 Noroeste 0 1016.8 -0.4 97
2020-01-25 00:00:00 8.7 6 Noroeste 8 Noroeste 0 1016.9 -0.1 97
2020-01-24 23:00:00 9 5 Norte 6 Norte 0 1017.1 0.5 96
2020-01-24 22:00:00 9.2 0 Calma 8 Norte 0 1017.2 1 95
2020-01-24 21:00:00 9.8 5 Norte 8 Norte 0 1017 1.2 95
2020-01-24 20:00:00 10.4 3 Norte 5 Norte 0 1016.6 0.8 93
2020-01-24 19:00:00 11 3 Norte 8 Sudoeste 0 1016.2 0.5 91
2020-01-24 18:00:00 11.6 6 Sudoeste 11 Sudoeste 0 1015.8 0 87
2020-01-24 17:00:00 12.7 6 Sur 14 Sur 0 1015.8 -0.4 80
2020-01-24 16:00:00 15.7 5 Sur 15 Sudeste 0 1015.7 -1.2 69
2020-01-24 15:00:00 16 8 Sur 16 Sur 0 1015.8 -2.1 66
2020-01-24 14:00:00 15.4 6 Sudeste 11 Sudeste 0 1016.2 -2.1 57
2020-01-24 13:00:00 14.5 4 Norte 9 Norte 0 1016.9 -1.1 63
2020-01-24 12:00:00 12.4 3 Nordeste 8 Este 0 1017.9 -0.1 78
2020-01-24 11:00:00 9.3 3 Norte 12 Norte 0 1018.3 0.4 92
2020-01-24 10:00:00 6 5 Norte 10 Norte 0 1018 0.3 100
2020-01-24 09:00:00 4.4 2 Oeste 5 Norte 0 1018 0.3 100
2020-01-24 08:00:00 4.2 2 Sudeste 6 Norte 0 1017.9 0 99
2020-01-24 07:00:00 4.4 3 Noroeste 8 Norte 0 1017.7 -0.5 99
2020-01-24 06:00:00 4.5 3 Norte 5 Noroeste 0 1017.7 -0.6 99
2020-01-24 05:00:00 4.5 0 Calma 5 Norte 0 1017.9 -0.7 99
2020-01-24 04:00:00 4.4 3 Norte 9 Norte 0 1018.2 -0.5 98
2020-01-24 03:00:00 5 6 Norte 13 Norte 0 1018.3 -0.7 98
2020-01-24 02:00:00 5.4 3 Nordeste 9 Noroeste 0 1018.6 -0.2 97
2020-01-24 01:00:00 6.2 7 Noroeste 11 Noroeste 0 1018.7 0 97
2020-01-24 00:00:00 7.1 2 Nordeste 7 Noroeste 0 1019 0.3 95
2020-01-23 23:00:00 7.6 0 Calma 6 Noroeste 0 1018.8 0.6 94
2020-01-23 22:00:00 8.2 5 Norte 7 Norte 0 1018.7 1 93
2020-01-23 21:00:00 9 4 Norte 7 Sudoeste 0 1018.7 1.6 91
2020-01-23 20:00:00 9.9 5 Sudoeste 7 Sudoeste 0 1018.2 1.6 83
2020-01-23 19:00:00 10.6 2 Sudoeste 12 Sudeste 0 1017.7 1.4 82
2020-01-23 18:00:00 10.8 8 Sudeste 16 Sudeste 0 1017.1 0.8 80
2020-01-23 17:00:00 11.9 10 Sudeste 18 Sudeste 0 1016.6 0.1 77
2020-01-23 16:00:00 13.7 10 Sudeste 18 Sudeste 0 1016.3 -0.7 71
2020-01-23 15:00:00 14.7 8 Sudeste 18 Sudeste 0 1016.3 -0.8 65
2020-01-23 14:00:00 14.8 6 Sur 15 Sudeste 0 1016.5 -0.4 63
2020-01-23 13:00:00 14 5 Sudeste 9 Este 0 1017 0.4 62
2020-01-23 12:00:00 13.1 4 Norte 18 Noroeste 0 1017.1 1.1 68
2020-01-23 11:00:00 11.4 8 Norte 16 Norte 0 1016.9 1.8 80
2020-01-23 10:00:00 9 7 Noroeste 16 Noroeste 0 1016.6 2.1 90
2020-01-23 09:00:00 7.2 11 Noroeste 16 Noroeste 0 1016 2 94
2020-01-23 08:00:00 6.9 9 Noroeste 17 Norte 0 1015.1 1.6 97
2020-01-23 07:00:00 7.2 10 Norte 27 Norte 0 1014.5 0.3 99
2020-01-23 06:00:00 7 12 Norte 28 Norte 0 1014 -0.8 99
2020-01-23 05:00:00 7 14 Norte 31 Norte 0.2 1013.5 -1.8 99
2020-01-23 04:00:00 7.2 14 Norte 27 Nordeste 1.4 1014.2 -1.2 99
2020-01-23 03:00:00 7.3 12 Norte 27 Norte 3.4 1014.8 -0.5 99
2020-01-23 02:00:00 7.5 15 Norte 33 Norte 3.4 1015.3 0.4 98
2020-01-23 01:00:00 7.8 14 Norte 31 Norte 1.6 1015.4 0.8 96
2020-01-23 00:00:00 7.8 14 Norte 33 Norte 0.2 1015.3 0.7 96
2020-01-22 23:00:00 7.6 17 Norte 36 Norte 0 1014.9 0.6 98
2020-01-22 22:00:00 7.5 18 Norte 32 Norte 0.2 1014.6 1.3 98
2020-01-22 21:00:00 7.5 13 Norte 33 Norte 0.6 1014.6 1.5 98
2020-01-22 20:00:00 7.5 11 Norte 36 Norte 0.8 1014.3 0.8 97
2020-01-22 19:00:00 8 16 Norte 39 Norte 0.8 1013.3 -1 97
2020-01-22 18:00:00 8 10 Norte 23 Norte 1.2 1013.1 -1.1 97
2020-01-22 17:00:00 8.2 12 Norte 30 Nordeste 0.2 1013.5 -1.4 94
2020-01-22 16:00:00 8.7 12 Norte 40 Norte 1.2 1014.3 -1.7 95
2020-01-22 15:00:00 9.1 14 Norte 36 Noroeste 2.2 1014.2 -2.5 94
2020-01-22 14:00:00 10.9 12 Norte 33 Norte 0 1014.9 -2.2 81
2020-01-22 13:00:00 11.2 12 Norte 31 Norte 0 1016 -0.8 80
2020-01-22 12:00:00 10.4 16 Norte 36 Norte 0 1016.7 0.1 85
2020-01-22 11:00:00 8.4 12 Norte 27 Norte 0 1017.1 0.7 93
2020-01-22 10:00:00 7.9 12 Norte 28 Noroeste 0 1016.8 0.7 97
2020-01-22 09:00:00 6.9 12 Norte 24 Norte 0 1016.6 0.7 100
2020-01-22 08:00:00 6.7 7 Norte 29 Norte 0 1016.4 0.5 100
2020-01-22 07:00:00 7.1 13 Norte 26 Noroeste 0 1016.1 -0.3 100
2020-01-22 06:00:00 6.9 12 Norte 24 Norte 0 1015.9 -0.8 100
2020-01-22 05:00:00 6.9 9 Norte 16 Norte 0 1015.9 -0.9 100
2020-01-22 04:00:00 7.2 5 Norte 23 Norte 0 1016.4 -0.3 100
2020-01-22 03:00:00 7.2 8 Norte 15 Noroeste 0 1016.7 -0.1 100
2020-01-22 02:00:00 7.2 2 Nordeste 9 Norte 0 1016.8 0 100
2020-01-22 01:00:00 7.6 5 Nordeste 15 Norte 0 1016.7 -0.1 100
2020-01-22 00:00:00 8 6 Norte 21 Norte 0 1016.8 0.5 100
2020-01-21 23:00:00 7.9 4 Norte 13 Norte 1.4 1016.8 1.2 100
2020-01-21 22:00:00 7.7 5 Norte 18 Noroeste 2.6 1016.8 1.5 100
2020-01-21 21:00:00 7.4 10 Noroeste 32 Noroeste 5.4 1016.3 2.8 100
2020-01-21 20:00:00 7.2 15 Noroeste 35 Este 9.8 1015.6 2.9 100
2020-01-21 19:00:00 8 15 Nordeste 62 Este 44.6 1015.3 2.3 99
2020-01-21 18:00:00 11.5 23 Este 67 Nordeste 14 1013.5 0.6 99
2020-01-21 17:00:00 11.7 30 Nordeste 76 Nordeste 8.4 1012.7 -0.9 99
2020-01-21 16:00:00 12 30 Este 74 Este 6.4 1013 -1.5 99
2020-01-21 15:00:00 12.3 27 Este 75 Nordeste 2.8 1012.9 -2.1 98
2020-01-21 14:00:00 12.3 26 Este 78 Este 18.8 1013.6 -1.9 98
2020-01-21 13:00:00 12 23 Nordeste 63 Este 4.2 1014.5 -0.9 97
2020-01-21 12:00:00 11.6 20 Nordeste 63 Nordeste 5.4 1015 -0.5 99
2020-01-21 11:00:00 10.1 13 Nordeste 64 Nordeste 4.6 1015.5 -0.5 97
2020-01-21 10:00:00 9.7 14 Nordeste 46 Este 4.4 1015.4 -0.9 98
2020-01-21 09:00:00 9.4 22 Nordeste 60 Nordeste 4.4 1015.5 -0.9 98
2020-01-21 08:00:00 9 21 Nordeste 53 Nordeste 2.2 1016 -1.3 99
2020-01-21 07:00:00 7.5 9 Norte 34 Noroeste 3.4 1016.3 -1.9 99
2020-01-21 06:00:00 6.7 15 Norte 34 Noroeste 2.6 1016.4 -2.3 98
2020-01-21 05:00:00 6.6 14 Norte 39 Norte 5.2 1017.3 -2.2 98
2020-01-21 04:00:00 6.9 14 Norte 44 Norte 1.8 1018.2 -1.5 96
2020-01-21 03:00:00 6.7 18 Norte 42 Noroeste 1.2 1018.7 -2 98
2020-01-21 02:00:00 6.8 17 Norte 40 Norte 2.8 1019.5 -1.2 97
2020-01-21 01:00:00 6.8 15 Noroeste 34 Norte 5.2 1019.7 -1.1 97
2020-01-21 00:00:00 6.7 15 Norte 30 Norte 1.8 1020.7 -0.4 97
2020-01-20 23:00:00 6.4 15 Noroeste 38 Norte 3 1020.7 -0.5 98
2020-01-20 22:00:00 6 19 Norte 45 Norte 3.4 1020.8 -0.5 98
2020-01-20 21:00:00 5.4 9 Norte 24 Norte 3.6 1021.1 0.4 99
2020-01-20 20:00:00 4.6 11 Noroeste 27 Noroeste 2 1021.2 0.6 100
2020-01-20 19:00:00 4.4 6 Norte 22 Noroeste 2.6 1021.3 0.3 99
2020-01-20 18:00:00 4 12 Norte 24 Norte 3.2 1020.7 -0.4 99
2020-01-20 17:00:00 3.6 10 Norte 24 Norte 3.8 1020.6 -0.7 99
2020-01-20 16:00:00 3.4 12 Norte 27 Norte 4.8 1021 -1 98
2020-01-20 15:00:00 3.4 11 Norte 28 Norte 3.4 1021.1 -1.3 98
2020-01-20 14:00:00 3.4 14 Norte 28 Norte 2.8 1021.3 -0.7 98
2020-01-20 13:00:00 3.7 14 Norte 30 Nordeste 2.6 1022 0.3 97
2020-01-20 12:00:00 3.8 10 Norte 25 Nordeste 1.6 1022.4 1 98
2020-01-20 11:00:00 3.6 12 Norte 28 Norte 2.2 1022 1 97
2020-01-20 10:00:00 3.6 10 Norte 23 Norte 2 1021.7 0.9 97
2020-01-20 09:00:00 3.6 11 Norte 22 Nordeste 2.4 1021.4 0.8 97
2020-01-20 08:00:00 3.8 11 Norte 25 Norte 1.4 1021 0.9 95
2020-01-20 07:00:00 4 8 Norte 25 Norte 0.2 1020.8 0.7 92
2020-01-20 06:00:00 4.8 13 Norte 44 Norte 0.2 1020.6 0.2 82
2020-01-20 05:00:00 6.2 18 Norte 44 Norte 0 1020.1 -0.5 65
2020-01-20 04:00:00 6.4 17 Noroeste 37 Noroeste 0 1020.1 -0.3 63
2020-01-20 03:00:00 6.4 10 Norte 25 Nordeste 0 1020.4 0.6 63
2020-01-20 02:00:00 6.8 7 Nordeste 26 Nordeste 0 1020.6 1.3 64
2020-01-20 01:00:00 7 13 Norte 28 Norte 0 1020.4 1.4 61
2020-01-20 00:00:00 7.1 11 Norte 22 Norte 0 1019.8 1.3 65
2020-01-19 23:00:00 7.1 11 Norte 27 Norte 0 1019.3 1 69
2020-01-19 22:00:00 7.2 10 Norte 22 Norte 0 1019 1.6 77
2020-01-19 21:00:00 7.2 9 Norte 18 Norte 0 1018.5 1.7 85
2020-01-19 20:00:00 7.6 9 Norte 18 Norte 0 1018.3 2 83
2020-01-19 19:00:00 7.7 10 Norte 19 Norte 0 1017.4 1.6 86
2020-01-19 18:00:00 8.3 9 Norte 23 Norte 0 1016.8 0.9 88
2020-01-19 17:00:00 8.5 11 Norte 24 Norte 0 1016.3 0.1 91
2020-01-19 16:00:00 8.1 11 Norte 26 Norte 0 1015.8 -0.7 96
2020-01-19 15:00:00 7.7 10 Norte 25 Norte 0 1015.9 -0.4 98
2020-01-19 14:00:00 7.3 8 Norte 17 Norte 0.2 1016.2 0.5 99
2020-01-19 13:00:00 7.1 10 Norte 19 Norte 1 1016.5 1.4 99
2020-01-19 12:00:00 6.7 8 Norte 20 Norte 1.4 1016.3 1.8 98
2020-01-19 11:00:00 6.4 10 Norte 20 Norte 2 1015.7 2.1 98
2020-01-19 10:00:00 6.5 10 Norte 23 Noroeste 2 1015.1 2.1 97
2020-01-19 09:00:00 6.6 10 Norte 26 Norte 2.2 1014.5 1.8 97
2020-01-19 08:00:00 6.9 13 Norte 26 Norte 4.2 1013.6 0.7 96
2020-01-19 07:00:00 7.4 13 Norte 26 Norte 0.4 1013 0.1 90
2020-01-19 06:00:00 7.9 12 Norte 36 Norte 0.6 1012.7 -0.5 89
2020-01-19 05:00:00 8.4 11 Norte 27 Norte 1 1012.9 -0.8 90
2020-01-19 04:00:00 11.1 10 Norte 29 Oeste 0 1012.9 -1.2 71
2020-01-19 03:00:00 11.4 18 Noroeste 34 Noroeste 0 1013.2 -1.2 65
2020-01-19 02:00:00 9.8 9 Norte 20 Norte 0 1013.7 -1.2 88
2020-01-19 01:00:00 10.1 4 Norte 8 Norte 0 1014.1 -2 85
2020-01-19 00:00:00 10.2 4 Norte 8 Norte 0 1014.4 -1.9 83
2020-01-18 23:00:00 10.2 5 Noroeste 9 Norte 0 1014.9 -1.7 83
2020-01-18 22:00:00 10.7 4 Norte 8 Norte 0 1016.1 -0.9 80
2020-01-18 21:00:00 11.2 4 Noroeste 10 Oeste 0 1016.3 -1.3 77
2020-01-18 20:00:00 11.3 5 Oeste 9 Oeste 0 1016.6 -1.6 76
2020-01-18 19:00:00 11.7 3 Este 9 Sudeste 0 1017 -2.1 74
2020-01-18 18:00:00 11.9 5 Sur 16 Sudeste 0 1017.6 -2.3 70
2020-01-18 17:00:00 14.3 6 Sudeste 21 Sur 0 1018.2 -2.7 63
2020-01-18 16:00:00 15 9 Sudeste 21 Sudeste 0 1019.1 -3.5 59
2020-01-18 15:00:00 15.6 11 Sudeste 24 Sudeste 0 1019.9 -4.4 56
2020-01-18 14:00:00 16.3 13 Sudeste 30 Sudeste 0 1020.9 -4.7 53
2020-01-18 13:00:00 15 10 Sudeste 20 Sudeste 0 1022.6 -2.7 49
2020-01-18 12:00:00 13.8 3 Sur 9 Norte 0 1024.3 -1.7 48
2020-01-18 11:00:00 10.5 4 Nordeste 11 Nordeste 0 1025.6 -0.2 61
2020-01-18 10:00:00 9.4 3 Noroeste 21 Norte 0 1025.3 0 64
2020-01-18 09:00:00 8.8 9 Noroeste 18 Noroeste 0 1026 1.1 61
2020-01-18 08:00:00 9.1 9 Noroeste 24 Norte 0 1025.8 0.2 60
2020-01-18 07:00:00 8.6 13 Norte 28 Norte 0 1025.3 -0.5 61
2020-01-18 06:00:00 8.3 15 Norte 26 Norte 0 1024.9 -1.4 63
2020-01-18 05:00:00 8.5 7 Norte 9 Sudeste 0 1025.6 -1.2 61
2020-01-18 04:00:00 8.9 6 Oeste 12 Oeste 0 1025.8 -1.1 58
2020-01-18 03:00:00 9 7 Norte 11 Noroeste 0 1026.3 -0.6 58
2020-01-18 02:00:00 9 5 Nordeste 19 Oeste 0 1026.8 0.6 57
2020-01-18 01:00:00 10.7 10 Oeste 19 Oeste 0 1026.9 1.3 51
2020-01-18 00:00:00 10.9 3 Noroeste 10 Oeste 0 1026.9 2.1 51
2020-01-17 23:00:00 11.5 5 Este 19 Oeste 0 1026.2 1.2 50
2020-01-17 22:00:00 12.4 14 Noroeste 35 Norte 0 1025.6 1.1 47
2020-01-17 21:00:00 12.7 14 Norte 31 Norte 0 1024.8 2 47
2020-01-17 20:00:00 13 10 Norte 24 Noroeste 0 1025 3.1 48
2020-01-17 19:00:00 13.9 8 Norte 34 Norte 0 1024.5 2.9 49
2020-01-17 18:00:00 15.8 11 Norte 36 Noroeste 0 1022.8 1.4 40
2020-01-17 17:00:00 17.4 11 Norte 30 Norte 0 1021.9 0.4 34
2020-01-17 16:00:00 17.4 13 Noroeste 39 Oeste 0 1021.6 -0.2 39
2020-01-17 15:00:00 17.6 12 Noroeste 38 Noroeste 0 1021.4 -1.1 37
2020-01-17 14:00:00 18.4 13 Noroeste 43 Oeste 0 1021.5 -1.2 35
2020-01-17 13:00:00 19.3 11 Oeste 27 Oeste 0 1021.8 -0.5 37
2020-01-17 12:00:00 18.3 9 Oeste 23 Noroeste 0 1022.5 0.5 38
2020-01-17 11:00:00 14.5 8 Oeste 21 Oeste 0 1022.7 1.1 53
2020-01-17 10:00:00 8.1 5 Sur 10 Este 0 1022.3 1.3 95
2020-01-17 09:00:00 5.8 3 Sur 10 Oeste 0 1022 0.9 99
2020-01-17 08:00:00 6.2 3 Norte 11 Norte 0 1021.6 0.3 99
2020-01-17 07:00:00 6.7 6 Noroeste 14 Norte 0 1021 -0.4 98
2020-01-17 06:00:00 6.5 5 Norte 13 Nordeste 0 1021.1 -0.6 99
2020-01-17 05:00:00 6.2 2 Nordeste 8 Noroeste 0 1021.3 -0.6 99
2020-01-17 04:00:00 5.4 5 Norte 9 Norte 0 1021.4 -0.6 98
2020-01-17 03:00:00 5.1 3 Norte 6 Norte 0 1021.7 -0.9 97
2020-01-17 02:00:00 5.8 2 Nordeste 10 Noroeste 0 1021.9 -0.6 96
2020-01-17 01:00:00 6.4 0 Calma 7 Noroeste 0 1022 -0.5 95
2020-01-17 00:00:00 7.4 4 Noroeste 8 Noroeste 0 1022.6 0.4 96
2020-01-16 23:00:00 8.4 2 Sudeste 4 Oeste 0 1022.5 0.2 96
2020-01-16 22:00:00 8.1 0 Calma 5 Sudeste 0 1022.5 0.6 94
2020-01-16 21:00:00 9.2 4 Sur 7 Sudeste 0 1022.2 0.6 92
2020-01-16 20:00:00 10.5 4 Sudoeste 14 Sudoeste 0 1022.3 1 93
2020-01-16 19:00:00 11.4 8 Sudoeste 16 Sudoeste 0 1021.9 1 89
2020-01-16 18:00:00 13.3 12 Sudoeste 17 Sudoeste 0 1021.6 0.5 76
2020-01-16 17:00:00 16.5 8 Sur 17 Sudeste 0 1021.3 -0.5 59
2020-01-16 16:00:00 18.1 9 Sur 18 Sudeste 0 1020.9 -2.1 52
2020-01-16 15:00:00 18.7 6 Sur 12 Sur 0 1021.1 -2.7 48
2020-01-16 14:00:00 17.7 4 Sur 11 Sur 0 1021.8 -2.6 49
2020-01-16 13:00:00 16 4 Sudeste 8 Sur 0 1023 -1.5 57
2020-01-16 12:00:00 13.4 3 Nordeste 7 Nordeste 0 1023.8 -0.4 60
2020-01-16 11:00:00 10.2 3 Norte 9 Norte 0 1024.4 0.7 68
2020-01-16 10:00:00 6.4 4 Norte 11 Norte 0 1024.5 1.1 83
2020-01-16 09:00:00 3.9 6 Norte 12 Norte 0 1024.2 1.2 91
2020-01-16 08:00:00 3.5 3 Sudoeste 7 Sudoeste 0 1023.7 0.9 92
2020-01-16 07:00:00 3.7 4 Oeste 8 Nordeste 0 1023.4 0.5 91
2020-01-16 06:00:00 3.4 5 Nordeste 10 Norte 0 1023 0.1 91
2020-01-16 05:00:00 4 5 Norte 9 Norte 0 1022.8 0.2 89
2020-01-16 04:00:00 4.8 5 Norte 14 Nordeste 0 1022.9 0.3 84
2020-01-16 03:00:00 4.7 4 Norte 8 Norte 0 1022.9 0.4 86
2020-01-16 02:00:00 5.1 3 Norte 13 Noroeste 0 1022.6 0.2 83
2020-01-16 01:00:00 5 4 Norte 8 Norte 0 1022.6 0.6 84
2020-01-16 00:00:00 4.8 3 Sur 12 Norte 0 1022.5 0.6 86
2020-01-15 23:00:00 5.7 4 Nordeste 18 Norte 0 1022.4 0.6 80
2020-01-15 22:00:00 6 9 Norte 15 Norte 0 1022 0.7 79
2020-01-15 21:00:00 6.3 8 Norte 14 Norte 0 1021.9 1.4 79
2020-01-15 20:00:00 7.8 4 Norte 13 Norte 0 1021.8 2.1 72
2020-01-15 19:00:00 9.6 8 Noroeste 11 Noroeste 0 1021.3 1.8 68
2020-01-15 18:00:00 12.9 3 Sur 6 Sudeste 0 1020.5 0.9 63
2020-01-15 17:00:00 15 4 Sudeste 10 Sudeste 0 1019.7 -0.2 48
2020-01-15 16:00:00 15.4 5 Sur 8 Sur 0 1019.5 -1 44
2020-01-15 15:00:00 15 3 Nordeste 6 Nordeste 0 1019.6 -1.3 41
2020-01-15 14:00:00 14.9 3 Norte 11 Norte 0 1019.9 -1.1 44
2020-01-15 13:00:00 13.3 4 Norte 13 Norte 0 1020.5 0.3 48
2020-01-15 12:00:00 10.4 7 Norte 13 Norte 0 1020.9 1.2 59
2020-01-15 11:00:00 7.2 5 Norte 13 Norte 0 1021 1.8 69
2020-01-15 10:00:00 3.3 3 Norte 7 Norte 0 1020.2 1.1 86
2020-01-15 09:00:00 0.1 3 Norte 11 Norte 0 1019.7 1 93
2020-01-15 08:00:00 -0.1 6 Norte 11 Norte 0 1019.2 0.9 93
2020-01-15 07:00:00 0.2 5 Norte 17 Noroeste 0 1019.1 0.6 91
2020-01-15 06:00:00 0.4 6 Norte 12 Norte 0 1018.7 0.1 91
2020-01-15 05:00:00 0.6 6 Norte 12 Norte 0 1018.3 0 90
2020-01-15 04:00:00 1.2 6 Norte 11 Norte 0 1018.5 0.1 88
2020-01-15 03:00:00 1.7 8 Norte 16 Norte 0 1018.6 0.3 89
2020-01-15 02:00:00 1.5 7 Norte 14 Norte 0 1018.3 -0.1 88
2020-01-15 01:00:00 1.8 6 Norte 11 Noroeste 0 1018.4 0.3 87
2020-01-15 00:00:00 2.7 6 Norte 15 Norte 0 1018.3 0.3 83
2020-01-14 23:00:00 3.2 5 Norte 17 Norte 0 1018.4 0.6 80
2020-01-14 22:00:00 4.3 10 Norte 16 Norte 0 1018.1 0.7 77
2020-01-14 21:00:00 4.7 9 Norte 17 Norte 0 1018 1.2 73
2020-01-14 20:00:00 6.3 8 Noroeste 11 Noroeste 0 1017.8 1.4 64
2020-01-14 19:00:00 9.4 2 Sudeste 8 Sur 0 1017.4 1.1 53
2020-01-14 18:00:00 11.8 6 Sur 9 Sur 0 1016.8 0.6 45
2020-01-14 17:00:00 14.1 4 Norte 10 Norte 0 1016.4 -0.2 38
2020-01-14 16:00:00 14.7 6 Norte 14 Noroeste 0 1016.3 -1.2 37
2020-01-14 15:00:00 15 7 Norte 14 Nordeste 0 1016.2 -2.1 33
2020-01-14 14:00:00 15.1 6 Norte 19 Norte 0 1016.6 -2.2 37
2020-01-14 13:00:00 13.7 8 Norte 16 Norte 0 1017.5 -0.9 41
2020-01-14 12:00:00 10.4 8 Norte 20 Norte 0 1018.3 0.4 49
2020-01-14 11:00:00 7.5 7 Norte 15 Norte 0 1018.8 1.1 58
2020-01-14 10:00:00 4.2 5 Norte 15 Norte 0 1018.4 1.1 72
2020-01-14 09:00:00 0.8 7 Norte 17 Norte 0 1017.9 1.2 83
2020-01-14 08:00:00 0.3 5 Norte 14 Noroeste 0 1017.7 1.2 86
2020-01-14 07:00:00 0.7 9 Norte 17 Noroeste 0 1017.3 0.8 83
2020-01-14 06:00:00 1.5 6 Norte 28 Noroeste 0 1016.7 0.1 80
2020-01-14 05:00:00 1.9 13 Norte 32 Norte 0 1016.5 -0.4 78
2020-01-14 04:00:00 2.5 15 Norte 30 Noroeste 0 1016.5 -1.1 76
2020-01-14 03:00:00 2.4 11 Noroeste 24 Norte 0 1016.6 -1.2 78
2020-01-14 02:00:00 1.4 5 Norte 15 Noroeste 0 1016.9 -0.8 88
2020-01-14 01:00:00 2 6 Norte 21 Norte 0 1017.6 -0.3 86
2020-01-14 00:00:00 2.5 7 Norte 17 Noroeste 0 1017.8 -0.3 84
2020-01-13 23:00:00 2.8 8 Norte 17 Norte 0 1017.7 -0.6 83
2020-01-13 22:00:00 3.4 5 Norte 16 Norte 0 1017.9 -0.4 81
2020-01-13 21:00:00 4.6 9 Norte 15 Norte 0 1018.1 0.1 76
2020-01-13 20:00:00 6 5 Norte 21 Norte 0 1018.3 0.2 70
2020-01-13 19:00:00 7 9 Norte 19 Norte 0 1018.3 0.2 66
2020-01-13 18:00:00 8.3 8 Norte 16 Noroeste 0 1018 -0.1 60
2020-01-13 17:00:00 10.3 6 Norte 19 Noroeste 0 1018.1 -0.6 54
2020-01-13 16:00:00 12.3 8 Norte 14 Norte 0 1018.1 -2.1 46
2020-01-13 15:00:00 13.3 3 Norte 8 Nordeste 0 1018.1 -3.2 41
2020-01-13 14:00:00 13.4 3 Norte 14 Nordeste 0 1018.7 -3.2 40
2020-01-13 13:00:00 12 6 Norte 22 Norte 0 1020.2 -1.5 45
2020-01-13 12:00:00 10.1 7 Norte 17 Norte 0 1021.3 -0.4 50
2020-01-13 11:00:00 6.7 13 Norte 27 Norte 0 1021.9 0.1 58
2020-01-13 10:00:00 3.8 5 Norte 11 Norte 0 1021.7 -0.2 75
2020-01-13 09:00:00 0 3 Norte 9 Norte 0 1021.7 -0.2 89
2020-01-13 08:00:00 -0.8 6 Norte 12 Norte 0 1021.8 -0.5 89
2020-01-13 07:00:00 -0.4 4 Nordeste 11 Norte 0 1021.9 -1.1 91
2020-01-13 06:00:00 -0.2 4 Norte 11 Norte 0 1021.9 -1.4 89
2020-01-13 05:00:00 0.1 4 Norte 9 Norte 0 1022.3 -1.4 88
2020-01-13 04:00:00 0.7 5 Norte 10 Norte 0 1023 -1.2 86
2020-01-13 03:00:00 1.1 5 Norte 11 Norte 0 1023.3 -1.6 85
2020-01-13 02:00:00 1.3 5 Norte 9 Norte 0 1023.7 -1.5 83
2020-01-13 01:00:00 2.1 5 Norte 7 Nordeste 0 1024.2 -1 82
2020-01-13 00:00:00 3.1 4 Nordeste 9 Norte 0 1024.9 -0.6 79
2020-01-12 23:00:00 3.5 3 Norte 12 Norte 0 1025.2 -0.3 77
2020-01-12 22:00:00 4 6 Norte 12 Noroeste 0 1025.2 0.4 73
2020-01-12 21:00:00 5.4 5 Norte 12 Noroeste 0 1025.5 1.1 68
2020-01-12 20:00:00 6.5 4 Norte 12 Norte 0 1025.5 1.4 64
2020-01-12 19:00:00 7.9 6 Norte 18 Norte 0 1024.8 0.8 60
2020-01-12 18:00:00 10.1 10 Norte 22 Noroeste 0 1024.4 0.5 53
2020-01-12 17:00:00 13.5 6 Noroeste 16 Noroeste 0 1024.1 -0.4 42
2020-01-12 16:00:00 15.2 8 Norte 18 Norte 0 1024 -1.3 38
2020-01-12 15:00:00 16.7 5 Sur 16 Sudoeste 0 1023.9 -2.3 36
2020-01-12 14:00:00 15.4 4 Noroeste 11 Oeste 0 1024.5 -1.8 28
2020-01-12 13:00:00 14.6 8 Norte 18 Norte 0 1025.3 -0.7 33
2020-01-12 12:00:00 12.3 10 Norte 25 Norte 0 1026.2 0.6 38
2020-01-12 11:00:00 9.8 12 Norte 23 Norte 0 1026.3 0.8 46
2020-01-12 10:00:00 5.5 6 Noroeste 15 Norte 0 1026 0.6 70
2020-01-12 09:00:00 1.3 8 Norte 14 Norte 0 1025.6 0.7 91
2020-01-12 08:00:00 0.3 5 Norte 9 Norte 0 1025.5 0.7 93
2020-01-12 07:00:00 0.3 4 Noroeste 9 Noroeste 0 1025.4 0.5 93
2020-01-12 06:00:00 0.9 4 Norte 7 Norte 0 1024.9 -0.4 92
2020-01-12 05:00:00 1.3 3 Noroeste 8 Noroeste 0 1024.8 -0.4 93
2020-01-12 04:00:00 1.5 3 Nordeste 7 Norte 0 1024.9 -0.8 91
2020-01-12 03:00:00 2.2 3 Norte 15 Noroeste 0 1025.3 -0.8 89
2020-01-12 02:00:00 2.2 6 Norte 13 Norte 0 1025.2 -0.9 91
2020-01-12 01:00:00 2.6 3 Norte 7 Norte 0 1025.7 -0.3 88
2020-01-12 00:00:00 3.1 5 Norte 12 Norte 0 1026.1 0.3 86
2020-01-11 23:00:00 3.8 2 Norte 9 Norte 0 1026.1 0.4 83
2020-01-11 22:00:00 5.3 4 Norte 12 Noroeste 0 1026 0.8 78
2020-01-11 21:00:00 6.9 5 Norte 6 Norte 0 1025.8 1.1 77
2020-01-11 20:00:00 7.9 2 Este 12 Sudeste 0 1025.7 1.3 75
2020-01-11 19:00:00 9.6 7 Sudeste 10 Sur 0 1025.2 0.9 72
2020-01-11 18:00:00 11.8 7 Sur 11 Sudeste 0 1024.7 0.4 61
2020-01-11 17:00:00 15 5 Nordeste 15 Nordeste 0 1024.4 -0.4 42
2020-01-11 16:00:00 15.9 6 Nordeste 22 Nordeste 0 1024.3 -1.3 40
2020-01-11 15:00:00 16 9 Nordeste 27 Nordeste 0 1024.3 -2.4 39
2020-01-11 14:00:00 15.8 12 Nordeste 27 Nordeste 0 1024.8 -2.3 39
2020-01-11 13:00:00 15.4 8 Norte 25 Noroeste 0 1025.6 -0.9 39
2020-01-11 12:00:00 14.2 13 Noroeste 28 Noroeste 0 1026.7 0.9 40
2020-01-11 11:00:00 13.1 10 Norte 23 Noroeste 0 1027.1 1.5 45
2020-01-11 10:00:00 10.3 10 Norte 28 Noroeste 0 1026.5 1 55
2020-01-11 09:00:00 7.9 10 Norte 27 Norte 0 1025.8 0.7 62
2020-01-11 08:00:00 7.5 10 Norte 21 Norte 0 1025.6 0.6 63
2020-01-11 07:00:00 7.5 9 Norte 22 Norte 0 1025.5 0.4 65
2020-01-11 06:00:00 7.9 9 Norte 30 Noroeste 0 1025.1 0.5 65
2020-01-11 05:00:00 8.1 6 Norte 21 Norte 0 1025 1 65
2020-01-11 04:00:00 8.6 9 Norte 30 Noroeste 0 1025.1 1.2 65
2020-01-11 03:00:00 9.1 13 Norte 28 Noroeste 0 1024.6 0.2 63
2020-01-11 02:00:00 8.8 12 Norte 25 Norte 0 1024 0 66
2020-01-11 01:00:00 8.9 10 Norte 24 Noroeste 0 1023.9 0.1 67
2020-01-11 00:00:00 9.5 7 Norte 28 Norte 0 1024.4 0.9 65
2020-01-10 23:00:00 10.1 10 Norte 32 Noroeste 0 1024 0.6 63
2020-01-10 22:00:00 10.5 12 Norte 28 Noroeste 0 1023.8 0.9 63
2020-01-10 21:00:00 10.8 12 Norte 40 Norte 0 1023.5 0.9 64
2020-01-10 20:00:00 10.1 11 Norte 26 Norte 0 1023.4 0.9 69
2020-01-10 19:00:00 9.9 12 Norte 22 Norte 0 1022.9 0.5 73
2020-01-10 18:00:00 11.3 8 Norte 15 Norte 0 1022.6 0.2 66
2020-01-10 17:00:00 12.7 6 Norte 18 Norte 0 1022.5 0.3 61
2020-01-10 16:00:00 13.1 9 Norte 21 Nordeste 0 1022.4 0.1 58
2020-01-10 15:00:00 12.1 9 Nordeste 23 Norte 0 1022.4 0.2 62
2020-01-10 14:00:00 12 10 Norte 24 Norte 0 1022.2 0.6 60
2020-01-10 13:00:00 11.5 10 Nordeste 28 Norte 0 1022.3 1.5 61
2020-01-10 12:00:00 11.8 10 Norte 25 Nordeste 0 1022.2 2.6 61
2020-01-10 11:00:00 11.2 10 Norte 45 Noroeste 0 1021.6 3.5 59
2020-01-10 10:00:00 11.2 18 Noroeste 39 Noroeste 0 1020.8 1.8 56
2020-01-10 09:00:00 11.5 19 Noroeste 54 Noroeste 0 1019.6 0.3 54
2020-01-10 08:00:00 12 30 Noroeste 60 Oeste 0 1018.1 -1.3 55
2020-01-10 07:00:00 11 21 Norte 50 Noroeste 0 1019 -0.5 62
2020-01-10 06:00:00 9.7 18 Noroeste 41 Noroeste 0 1019.3 0.1 69
2020-01-10 05:00:00 7.8 16 Norte 37 Norte 0 1019.4 0.4 78
2020-01-10 04:00:00 6.7 12 Norte 34 Norte 0 1019.5 0.1 82
2020-01-10 03:00:00 7.4 12 Norte 26 Norte 0 1019.2 -0.3 89
2020-01-10 02:00:00 7.2 7 Norte 15 Norte 0 1019 -1 95
2020-01-10 01:00:00 6.7 6 Norte 10 Norte 0 1019.4 -0.8 94
2020-01-10 00:00:00 7.2 5 Noroeste 10 Norte 0 1019.5 -0.7 94
2020-01-09 23:00:00 7.3 5 Norte 12 Noroeste 0 1020 -0.5 94
2020-01-09 22:00:00 7.3 5 Nordeste 10 Noroeste 0 1020.2 -0.5 94
2020-01-09 21:00:00 8.1 3 Norte 9 Noroeste 0 1020.2 0.2 90
2020-01-09 20:00:00 9.2 6 Noroeste 9 Noroeste 0 1020.5 0.4 90
2020-01-09 19:00:00 10.9 3 Este 13 Sudeste 0 1020.7 0.2 91
2020-01-09 18:00:00 11.7 8 Sudeste 17 Este 0 1020 -1 87
2020-01-09 17:00:00 12.5 2 Norte 6 Nordeste 0 1020.1 -1.5 74
2020-01-09 16:00:00 14 5 Sudeste 13 Sur 0 1020.5 -2.1 73
2020-01-09 15:00:00 15.1 8 Sudeste 14 Sudeste 0 1021 -2.7 66
2020-01-09 14:00:00 13.7 4 Este 9 Norte 0 1021.6 -2.8 63
2020-01-09 13:00:00 12.4 6 Norte 12 Norte 0 1022.6 -1.5 65
2020-01-09 12:00:00 10.3 6 Norte 16 Norte 0 1023.7 -0.2 73
2020-01-09 11:00:00 7.4 9 Norte 18 Noroeste 0 1024.4 0.5 85
2020-01-09 10:00:00 4.3 9 Norte 18 Norte 0 1024.1 -0.1 99
2020-01-09 09:00:00 2.9 6 Norte 19 Norte 0 1023.9 -0.4 98
2020-01-09 08:00:00 2.9 8 Norte 19 Norte 0 1023.9 -0.8 98
2020-01-09 07:00:00 2.9 6 Norte 15 Norte 0 1024.2 -1 97
2020-01-09 06:00:00 3.3 7 Norte 17 Norte 0 1024.3 -1.3 97
2020-01-09 05:00:00 3.5 7 Norte 15 Norte 0 1024.7 -1 97
2020-01-09 04:00:00 3.2 8 Norte 16 Norte 0 1025.2 -0.7 96
2020-01-09 03:00:00 3.3 7 Norte 14 Norte 0 1025.6 -0.7 95
2020-01-09 02:00:00 3.7 5 Norte 12 Noroeste 0 1025.7 -0.9 93
2020-01-09 01:00:00 4.4 6 Norte 13 Norte 0 1025.9 -0.4 92
2020-01-09 00:00:00 4.9 6 Norte 13 Norte 0 1026.3 -0.1 91
2020-01-08 23:00:00 5.5 4 Norte 16 Norte 0 1026.6 0.2 89
2020-01-08 22:00:00 6.2 8 Norte 14 Noroeste 0 1026.3 0 88
2020-01-08 21:00:00 6.9 7 Norte 16 Norte 0 1026.4 0.6 85
2020-01-08 20:00:00 8 5 Norte 14 Noroeste 0 1026.4 1.2 81
2020-01-08 19:00:00 9.5 6 Norte 13 Norte 0 1026.3 1.2 76
2020-01-08 18:00:00 12.5 5 Norte 17 Sudeste 0 1025.8 0.5 66
2020-01-08 17:00:00 16.5 9 Sudeste 15 Sudeste 0 1025.2 -0.7 53
2020-01-08 16:00:00 17.3 5 Sudeste 8 Sudeste 0 1025.1 -1.6 47
2020-01-08 15:00:00 16.4 3 Nordeste 11 Norte 0 1025.3 -2.7 50
2020-01-08 14:00:00 15 5 Nordeste 11 Nordeste 0 1025.9 -2.3 57
2020-01-08 13:00:00 13.3 3 Nordeste 14 Norte 0 1026.7 -1 60
2020-01-08 12:00:00 11.1 8 Norte 25 Noroeste 0 1028 2 65
2020-01-08 11:00:00 8.8 8 Norte 22 Norte 0 1028.2 2.9 71
2020-01-08 10:00:00 6.1 6 Norte 26 Norte 0 1027.7 3 82
2020-01-08 09:00:00 4 13 Norte 31 Norte 0 1026 2 92
2020-01-08 08:00:00 4 13 Norte 34 Norte 0 1025.3 1.6 92
2020-01-08 07:00:00 4 10 Norte 24 Noroeste 0 1024.7 1.1 94
2020-01-08 06:00:00 3.7 4 Norte 17 Norte 0 1024 0.4 93
2020-01-08 05:00:00 3.5 5 Sur 8 Este 0 1023.7 0.4 93
2020-01-08 04:00:00 3.3 3 Este 8 Sur 0 1023.6 -0.2 92
2020-01-08 03:00:00 3.8 4 Sudeste 14 Norte 0 1023.6 -1.2 89
2020-01-08 02:00:00 4.6 9 Norte 22 Norte 0 1023.3 -1.9 88
2020-01-08 01:00:00 4.3 11 Norte 25 Norte 0 1023.8 -1.6 87
2020-01-08 00:00:00 4.8 11 Norte 24 Norte 0 1024.8 -0.6 85
2020-01-07 23:00:00 4.6 12 Norte 24 Norte 0 1025.2 0 86
2020-01-07 22:00:00 4.5 10 Norte 27 Norte 0 1025.4 0.6 86
2020-01-07 21:00:00 4.9 11 Norte 22 Norte 0 1025.4 1 84
2020-01-07 20:00:00 5.4 8 Norte 21 Noroeste 0 1025.2 1.2 80
2020-01-07 19:00:00 6.6 5 Norte 22 Norte 0 1024.8 0.7 74
2020-01-07 18:00:00 7.7 11 Norte 27 Noroeste 0 1024.4 0.4 70
2020-01-07 17:00:00 10.3 15 Norte 26 Noroeste 0 1024 -1 60
2020-01-07 16:00:00 13 9 Norte 23 Nordeste 0 1024.1 -1.7 53
2020-01-07 15:00:00 13 11 Noroeste 32 Norte 0 1024 -2.7 51
2020-01-07 14:00:00 11.9 13 Norte 33 Norte 0 1025 -2.3 57
2020-01-07 13:00:00 11.9 14 Norte 28 Noroeste 0 1025.8 -1.5 56
2020-01-07 12:00:00 10.6 12 Norte 26 Noroeste 0 1026.7 0 61
2020-01-07 11:00:00 8.8 10 Norte 26 Norte 0 1027.3 0.7 65
2020-01-07 10:00:00 6.4 15 Norte 29 Noroeste 0 1027.3 1.1 74
2020-01-07 09:00:00 4.1 11 Noroeste 32 Norte 0 1026.7 0.5 84
2020-01-07 08:00:00 3.9 13 Norte 29 Noroeste 0 1026.6 0.3 84
2020-01-07 07:00:00 3.7 15 Norte 34 Norte 0 1026.2 -0.6 85
2020-01-07 06:00:00 3.4 15 Norte 34 Norte 0 1026.2 -0.8 87
2020-01-07 05:00:00 3.4 17 Norte 32 Noroeste 0 1026.3 -0.5 87
2020-01-07 04:00:00 3.9 14 Noroeste 33 Norte 0 1026.8 0.2 84
2020-01-07 03:00:00 4 17 Norte 31 Norte 0 1027 0.6 84
2020-01-07 02:00:00 3.5 13 Norte 27 Norte 0 1026.8 0.6 87
2020-01-07 01:00:00 3.5 13 Norte 33 Norte 0 1026.6 0.5 87
2020-01-07 00:00:00 3.7 15 Norte 30 Norte 0 1026.4 0.9 85
2020-01-06 23:00:00 3.8 11 Norte 31 Norte 0 1026.2 1 86
2020-01-06 22:00:00 4.1 13 Norte 35 Norte 0 1026.1 1.4 87
2020-01-06 21:00:00 4.4 14 Norte 33 Norte 0 1025.5 1.2 87
2020-01-06 20:00:00 4.9 13 Norte 32 Norte 0 1025.2 1.1 86
2020-01-06 19:00:00 5.7 12 Norte 26 Norte 0 1024.7 1.1 83
2020-01-06 18:00:00 7 11 Norte 25 Norte 0 1024.3 0.9 79
2020-01-06 17:00:00 10 9 Norte 27 Norte 0 1024.1 0.2 68
2020-01-06 16:00:00 12 11 Norte 25 Norte 0 1023.6 -1.3 64
2020-01-06 15:00:00 12.9 9 Norte 24 Norte 0 1023.4 -2.3 60
2020-01-06 14:00:00 12 7 Norte 22 Norte 0 1023.9 -2.2 64
2020-01-06 13:00:00 10.9 12 Norte 21 Norte 0 1024.9 -1 64
2020-01-06 12:00:00 9.9 10 Norte 24 Noroeste 0 1025.7 0.1 66
2020-01-06 11:00:00 7.9 8 Norte 27 Norte 0 1026.1 0.9 74
2020-01-06 10:00:00 5.5 11 Norte 22 Norte 0 1025.9 1 83